createdAt,value
2019-01-25T00:09:58.729Z,-5.80
2019-01-25T00:21:40.894Z,-5.70
2019-01-25T00:33:22.350Z,-5.70
2019-01-25T00:45:06.101Z,-5.60
2019-01-25T00:56:47.515Z,-5.60
2019-01-25T01:08:28.844Z,-5.60
2019-01-25T01:20:12.784Z,-5.60
2019-01-25T01:31:54.320Z,-5.70
2019-01-25T01:43:35.761Z,-5.70
2019-01-25T01:55:18.107Z,-5.60
2019-01-25T02:06:59.815Z,-5.50
2019-01-25T02:18:41.256Z,-5.50
2019-01-25T02:30:24.243Z,-5.40
2019-01-25T02:42:06.823Z,-5.50
2019-01-25T02:53:48.365Z,-5.50
2019-01-25T03:05:30.644Z,-5.60
2019-01-25T03:17:12.057Z,-5.50
2019-01-25T03:28:53.536Z,-5.40
2019-01-25T03:40:34.961Z,-5.40
2019-01-25T03:52:16.494Z,-5.30
2019-01-25T04:03:58.392Z,-5.30
2019-01-25T04:15:40.753Z,-5.40
2019-01-25T04:27:22.159Z,-5.40
2019-01-25T04:39:06.130Z,-5.40
2019-01-25T04:50:47.653Z,-5.30
2019-01-25T05:02:29.192Z,-5.30
2019-01-25T05:14:10.680Z,-5.30
2019-01-25T05:25:52.024Z,-5.30
2019-01-25T05:37:33.345Z,-5.30
2019-01-25T05:49:14.784Z,-5.40
2019-01-25T06:00:56.186Z,-5.30
2019-01-25T06:12:38.233Z,-5.30
2019-01-25T06:24:19.770Z,-5.30
2019-01-25T06:36:02.062Z,-5.30
2019-01-25T06:47:43.467Z,-5.30
2019-01-25T06:59:24.805Z,-5.20
2019-01-25T07:11:06.288Z,-5.20
2019-01-25T07:22:48.715Z,-5.00
2019-01-25T07:34:30.124Z,-5.00
2019-01-25T07:46:12.305Z,-4.90
2019-01-25T07:57:53.636Z,-4.70
2019-01-25T08:09:35.374Z,-4.70
2019-01-25T08:21:16.762Z,-4.50
2019-01-25T08:32:58.257Z,-4.40
2019-01-25T08:44:39.785Z,-4.10
2019-01-25T08:56:22.107Z,-3.90
2019-01-25T09:08:03.580Z,-3.70
2019-01-25T09:19:44.996Z,-3.70
2019-01-25T09:31:26.407Z,-3.70
2019-01-25T09:43:08.016Z,-3.30
2019-01-25T09:54:49.612Z,-2.90
2019-01-25T10:06:31.873Z,-3.10
2019-01-25T10:18:13.288Z,-3.30
2019-01-25T10:29:54.734Z,-3.30
2019-01-25T10:41:36.172Z,-2.90
2019-01-25T10:53:18.527Z,-3.00
2019-01-25T11:04:59.991Z,-2.80
2019-01-25T11:16:42.332Z,-3.20
2019-01-25T11:28:23.645Z,-2.30
2019-01-25T11:40:17.564Z,-3.00
2019-01-25T11:51:58.901Z,-2.90
2019-01-25T12:03:40.402Z,-3.00
2019-01-25T12:15:21.896Z,-3.10
2019-01-25T12:27:04.292Z,-3.10
2019-01-25T12:38:45.768Z,-3.20
2019-01-25T12:50:43.324Z,-3.10
2019-01-25T13:02:24.707Z,-3.20
2019-01-25T13:14:06.200Z,-3.20
2019-01-25T13:25:47.608Z,-3.00
2019-01-25T13:37:31.544Z,-3.20
2019-01-25T13:49:12.995Z,-3.40
2019-01-25T14:00:54.432Z,-3.50
2019-01-25T14:12:35.964Z,-3.30
2019-01-25T14:24:17.421Z,-3.30
2019-01-25T14:35:58.990Z,-3.60
2019-01-25T14:47:41.308Z,-3.60
2019-01-25T14:59:22.597Z,-3.70
2019-01-25T15:11:04.040Z,-3.70
2019-01-25T15:22:45.468Z,-3.90
2019-01-25T15:34:27.877Z,-3.90
2019-01-25T15:46:09.376Z,-4.00
2019-01-25T16:10:29.103Z,-4.00
2019-01-25T16:27:28.676Z,-4.20
2019-01-25T16:40:28.528Z,-4.20
2019-01-25T16:52:09.967Z,-4.20
2019-01-25T17:03:51.637Z,-4.10
2019-01-25T17:15:33.996Z,-4.10
2019-01-25T17:27:15.378Z,-4.10
2019-01-25T17:38:56.829Z,-4.10
2019-01-25T17:50:39.319Z,-4.10
2019-01-25T18:02:21.001Z,-4.10
2019-01-25T18:14:02.695Z,-4.10
2019-01-25T18:25:47.716Z,-4.10
2019-01-25T18:42:48.037Z,-4.10
2019-01-25T18:54:33.239Z,-4.00
2019-01-25T19:06:17.585Z,-4.10
2019-01-25T19:18:01.876Z,-4.10
2019-01-25T19:29:46.269Z,-4.10
2019-01-25T19:41:30.565Z,-4.10
2019-01-25T19:53:16.101Z,-4.10
2019-01-25T20:05:01.333Z,-4.20
2019-01-25T20:16:45.741Z,-4.10
2019-01-25T20:28:30.112Z,-4.10
2019-01-25T20:40:17.028Z,-4.20
2019-01-25T20:52:01.336Z,-4.20
2019-01-25T21:03:46.185Z,-4.20
2019-01-25T21:15:35.419Z,-4.30
2019-01-25T21:27:17.312Z,-4.40
2019-01-25T21:39:01.607Z,-4.40
2019-01-25T21:50:48.444Z,-4.40
2019-01-25T22:02:32.808Z,-4.50
2019-01-25T22:14:17.168Z,-4.50
2019-01-25T22:26:01.448Z,-4.50
2019-01-25T22:37:46.779Z,-4.40
2019-01-25T22:49:31.067Z,-4.20
2019-01-25T23:01:19.485Z,-4.10
2019-01-25T23:13:05.553Z,-4.00
2019-01-25T23:24:49.934Z,-4.20
2019-01-25T23:36:34.309Z,-4.10
2019-01-25T23:48:18.644Z,-4.00
